sensor_id;sensor_type;location;lat;lon;timestamp;temperature;humidity
14307;DHT22;7237;49.500;11.400;2022-11-20T00:00:19;0.00;99.90
14307;DHT22;7237;49.500;11.400;2022-11-20T00:02:45;0.10;99.90
14307;DHT22;7237;49.500;11.400;2022-11-20T00:05:14;0.10;99.90
14307;DHT22;7237;49.500;11.400;2022-11-20T00:07:41;0.10;99.90
14307;DHT22;7237;49.500;11.400;2022-11-20T00:10:08;0.20;99.90
14307;DHT22;7237;49.500;11.400;2022-11-20T00:12:34;0.20;99.90
14307;DHT22;7237;49.500;11.400;2022-11-20T00:15:01;0.30;99.90
14307;DHT22;7237;49.500;11.400;2022-11-20T00:17:28;0.30;99.90
14307;DHT22;7237;49.500;11.400;2022-11-20T00:19:55;0.30;99.90
14307;DHT22;7237;49.500;11.400;2022-11-20T00:22:23;0.30;99.90
14307;DHT22;7237;49.500;11.400;2022-11-20T00:24:50;0.30;99.90
14307;DHT22;7237;49.500;11.400;2022-11-20T00:27:17;0.30;99.90
14307;DHT22;7237;49.500;11.400;2022-11-20T00:29:43;0.30;99.90
14307;DHT22;7237;49.500;11.400;2022-11-20T00:32:10;0.30;99.90
14307;DHT22;7237;49.500;11.400;2022-11-20T00:34:37;0.30;99.90
14307;DHT22;7237;49.500;11.400;2022-11-20T00:37:04;0.30;99.90
14307;DHT22;7237;49.500;11.400;2022-11-20T00:39:32;0.30;99.90
14307;DHT22;7237;49.500;11.400;2022-11-20T00:41:59;0.40;99.90
14307;DHT22;7237;49.500;11.400;2022-11-20T00:44:25;0.40;99.90
14307;DHT22;7237;49.500;11.400;2022-11-20T00:46:52;0.40;99.90
14307;DHT22;7237;49.500;11.400;2022-11-20T00:49:19;0.40;99.90
14307;DHT22;7237;49.500;11.400;2022-11-20T00:51:46;0.30;99.90
14307;DHT22;7237;49.500;11.400;2022-11-20T00:54:12;0.30;99.90
14307;DHT22;7237;49.500;11.400;2022-11-20T00:56:40;0.20;99.90
14307;DHT22;7237;49.500;11.400;2022-11-20T00:59:09;0.30;99.90
14307;DHT22;7237;49.500;11.400;2022-11-20T01:01:37;0.30;99.90
14307;DHT22;7237;49.500;11.400;2022-11-20T01:04:04;0.30;99.90
14307;DHT22;7237;49.500;11.400;2022-11-20T01:06:33;0.30;99.90
14307;DHT22;7237;49.500;11.400;2022-11-20T01:09:02;0.40;99.90
14307;DHT22;7237;49.500;11.400;2022-11-20T01:11:31;0.40;99.90
14307;DHT22;7237;49.500;11.400;2022-11-20T01:14:02;0.50;99.90
14307;DHT22;7237;49.500;11.400;2022-11-20T01:16:30;0.40;99.90
14307;DHT22;7237;49.500;11.400;2022-11-20T01:18:59;0.50;99.90
14307;DHT22;7237;49.500;11.400;2022-11-20T01:21:28;0.60;99.90
14307;DHT22;7237;49.500;11.400;2022-11-20T01:23:56;0.50;99.90
14307;DHT22;7237;49.500;11.400;2022-11-20T01:26:26;0.50;99.90
14307;DHT22;7237;49.500;11.400;2022-11-20T01:28:54;0.50;99.90
14307;DHT22;7237;49.500;11.400;2022-11-20T01:31:23;0.50;99.90
14307;DHT22;7237;49.500;11.400;2022-11-20T01:33:52;0.50;99.90
14307;DHT22;7237;49.500;11.400;2022-11-20T01:36:22;0.50;99.90
14307;DHT22;7237;49.500;11.400;2022-11-20T01:38:51;0.50;99.90
14307;DHT22;7237;49.500;11.400;2022-11-20T01:41:18;0.60;99.90
14307;DHT22;7237;49.500;11.400;2022-11-20T01:43:59;0.60;99.90
14307;DHT22;7237;49.500;11.400;2022-11-20T01:46:27;0.60;99.90
14307;DHT22;7237;49.500;11.400;2022-11-20T01:48:58;0.60;99.90
14307;DHT22;7237;49.500;11.400;2022-11-20T01:51:31;0.90;99.90
14307;DHT22;7237;49.500;11.400;2022-11-20T01:54:02;0.50;99.90
14307;DHT22;7237;49.500;11.400;2022-11-20T01:56:34;0.50;99.90
14307;DHT22;7237;49.500;11.400;2022-11-20T01:59:03;0.50;99.90
14307;DHT22;7237;49.500;11.400;2022-11-20T02:01:32;0.50;99.90
14307;DHT22;7237;49.500;11.400;2022-11-20T02:03:59;0.50;99.90
14307;DHT22;7237;49.500;11.400;2022-11-20T02:06:29;0.50;99.90
14307;DHT22;7237;49.500;11.400;2022-11-20T02:08:58;0.60;99.90
14307;DHT22;7237;49.500;11.400;2022-11-20T02:11:24;0.60;99.90
14307;DHT22;7237;49.500;11.400;2022-11-20T02:13:51;0.60;99.90
14307;DHT22;7237;49.500;11.400;2022-11-20T02:16:23;0.60;99.90
14307;DHT22;7237;49.500;11.400;2022-11-20T02:18:53;0.60;99.90
14307;DHT22;7237;49.500;11.400;2022-11-20T02:21:35;0.70;99.90
14307;DHT22;7237;49.500;11.400;2022-11-20T02:24:07;0.70;99.90
14307;DHT22;7237;49.500;11.400;2022-11-20T02:26:40;0.60;99.90
14307;DHT22;7237;49.500;11.400;2022-11-20T02:29:07;0.60;99.90
14307;DHT22;7237;49.500;11.400;2022-11-20T02:31:40;0.70;99.90
14307;DHT22;7237;49.500;11.400;2022-11-20T02:34:07;0.70;99.90
14307;DHT22;7237;49.500;11.400;2022-11-20T02:36:35;0.70;99.90
14307;DHT22;7237;49.500;11.400;2022-11-20T02:39:04;0.70;99.90
14307;DHT22;7237;49.500;11.400;2022-11-20T02:41:33;0.80;99.90
14307;DHT22;7237;49.500;11.400;2022-11-20T02:44:01;0.80;99.90
14307;DHT22;7237;49.500;11.400;2022-11-20T02:46:28;0.80;99.90
14307;DHT22;7237;49.500;11.400;2022-11-20T02:48:55;0.80;99.90
14307;DHT22;7237;49.500;11.400;2022-11-20T02:51:22;0.80;99.90
14307;DHT22;7237;49.500;11.400;2022-11-20T02:53:49;0.80;99.90
14307;DHT22;7237;49.500;11.400;2022-11-20T02:56:18;0.80;99.90
14307;DHT22;7237;49.500;11.400;2022-11-20T02:58:45;0.80;99.90
14307;DHT22;7237;49.500;11.400;2022-11-20T03:01:12;0.70;99.90
14307;DHT22;7237;49.500;11.400;2022-11-20T03:03:38;0.70;99.90
14307;DHT22;7237;49.500;11.400;2022-11-20T03:06:06;0.70;99.90
14307;DHT22;7237;49.500;11.400;2022-11-20T03:08:33;0.60;99.90
14307;DHT22;7237;49.500;11.400;2022-11-20T03:11:03;0.50;99.90
14307;DHT22;7237;49.500;11.400;2022-11-20T03:13:31;0.50;99.90
14307;DHT22;7237;49.500;11.400;2022-11-20T03:15:57;0.50;99.90
14307;DHT22;7237;49.500;11.400;2022-11-20T03:18:27;0.50;99.90
14307;DHT22;7237;49.500;11.400;2022-11-20T03:20:57;0.50;99.90
14307;DHT22;7237;49.500;11.400;2022-11-20T03:23:24;0.60;99.90
14307;DHT22;7237;49.500;11.400;2022-11-20T03:25:51;0.00;99.90
14307;DHT22;7237;49.500;11.400;2022-11-20T03:28:18;0.70;99.90
14307;DHT22;7237;49.500;11.400;2022-11-20T03:30:46;0.80;99.90
14307;DHT22;7237;49.500;11.400;2022-11-20T03:33:13;0.80;99.90
14307;DHT22;7237;49.500;11.400;2022-11-20T03:35:39;0.70;99.90
14307;DHT22;7237;49.500;11.400;2022-11-20T03:38:06;0.70;99.90
14307;DHT22;7237;49.500;11.400;2022-11-20T03:40:34;0.80;99.90
14307;DHT22;7237;49.500;11.400;2022-11-20T03:43:01;0.80;99.90
14307;DHT22;7237;49.500;11.400;2022-11-20T03:45:27;0.80;99.90
14307;DHT22;7237;49.500;11.400;2022-11-20T03:47:55;0.70;99.90
14307;DHT22;7237;49.500;11.400;2022-11-20T03:50:22;0.70;99.90
14307;DHT22;7237;49.500;11.400;2022-11-20T03:52:49;0.80;99.90
14307;DHT22;7237;49.500;11.400;2022-11-20T03:55:16;0.70;99.90
14307;DHT22;7237;49.500;11.400;2022-11-20T03:57:42;0.80;99.90
14307;DHT22;7237;49.500;11.400;2022-11-20T04:00:10;0.80;99.90
14307;DHT22;7237;49.500;11.400;2022-11-20T04:02:37;0.80;99.90
14307;DHT22;7237;49.500;11.400;2022-11-20T04:05:06;0.80;99.90
14307;DHT22;7237;49.500;11.400;2022-11-20T04:07:34;0.80;99.90
14307;DHT22;7237;49.500;11.400;2022-11-20T04:10:01;0.80;99.90
14307;DHT22;7237;49.500;11.400;2022-11-20T04:12:31;0.90;99.90
14307;DHT22;7237;49.500;11.400;2022-11-20T04:14:58;0.90;99.90
14307;DHT22;7237;49.500;11.400;2022-11-20T04:17:25;0.90;99.90
14307;DHT22;7237;49.500;11.400;2022-11-20T04:19:52;0.90;99.90
14307;DHT22;7237;49.500;11.400;2022-11-20T04:22:20;0.90;99.90
14307;DHT22;7237;49.500;11.400;2022-11-20T04:24:46;1.30;99.90
14307;DHT22;7237;49.500;11.400;2022-11-20T04:27:13;0.80;99.90
14307;DHT22;7237;49.500;11.400;2022-11-20T04:29:40;0.80;99.90
14307;DHT22;7237;49.500;11.400;2022-11-20T04:32:07;0.80;99.90
14307;DHT22;7237;49.500;11.400;2022-11-20T04:34:33;0.80;99.90
14307;DHT22;7237;49.500;11.400;2022-11-20T04:37:00;0.80;99.90
14307;DHT22;7237;49.500;11.400;2022-11-20T04:39:28;0.80;99.90
14307;DHT22;7237;49.500;11.400;2022-11-20T04:41:55;0.80;99.90
14307;DHT22;7237;49.500;11.400;2022-11-20T04:44:36;0.80;99.90
14307;DHT22;7237;49.500;11.400;2022-11-20T04:47:03;0.80;99.90
14307;DHT22;7237;49.500;11.400;2022-11-20T04:49:30;0.70;99.90
14307;DHT22;7237;49.500;11.400;2022-11-20T04:51:57;0.70;99.90
14307;DHT22;7237;49.500;11.400;2022-11-20T04:54:24;0.60;99.90
14307;DHT22;7237;49.500;11.400;2022-11-20T04:56:52;0.60;99.90
14307;DHT22;7237;49.500;11.400;2022-11-20T04:59:18;0.60;99.90
14307;DHT22;7237;49.500;11.400;2022-11-20T05:01:45;0.60;99.90
14307;DHT22;7237;49.500;11.400;2022-11-20T05:04:12;0.60;99.90
14307;DHT22;7237;49.500;11.400;2022-11-20T05:06:39;0.50;99.90
14307;DHT22;7237;49.500;11.400;2022-11-20T05:09:06;0.50;99.90
14307;DHT22;7237;49.500;11.400;2022-11-20T05:11:32;0.60;99.90
14307;DHT22;7237;49.500;11.400;2022-11-20T05:14:00;0.60;99.90
14307;DHT22;7237;49.500;11.400;2022-11-20T05:16:27;0.60;99.90
14307;DHT22;7237;49.500;11.400;2022-11-20T05:18:55;0.60;99.90
14307;DHT22;7237;49.500;11.400;2022-11-20T05:21:22;0.70;99.90
14307;DHT22;7237;49.500;11.400;2022-11-20T05:23:49;0.70;99.90
14307;DHT22;7237;49.500;11.400;2022-11-20T05:26:17;0.70;99.90
14307;DHT22;7237;49.500;11.400;2022-11-20T05:28:44;0.70;99.90
14307;DHT22;7237;49.500;11.400;2022-11-20T05:31:15;0.70;99.90
14307;DHT22;7237;49.500;11.400;2022-11-20T05:33:43;0.70;99.90
14307;DHT22;7237;49.500;11.400;2022-11-20T05:36:11;0.70;99.90
14307;DHT22;7237;49.500;11.400;2022-11-20T05:38:39;0.80;99.90
14307;DHT22;7237;49.500;11.400;2022-11-20T05:41:07;0.70;99.90
14307;DHT22;7237;49.500;11.400;2022-11-20T05:43:35;0.80;99.90
14307;DHT22;7237;49.500;11.400;2022-11-20T05:46:02;0.70;99.90
14307;DHT22;7237;49.500;11.400;2022-11-20T05:48:31;0.80;99.90
14307;DHT22;7237;49.500;11.400;2022-11-20T05:50:58;0.80;99.90
14307;DHT22;7237;49.500;11.400;2022-11-20T05:53:25;0.80;99.90
14307;DHT22;7237;49.500;11.400;2022-11-20T05:55:59;0.80;99.90
14307;DHT22;7237;49.500;11.400;2022-11-20T05:58:26;0.90;99.90
14307;DHT22;7237;49.500;11.400;2022-11-20T06:00:54;0.80;99.90
14307;DHT22;7237;49.500;11.400;2022-11-20T06:03:21;0.80;99.90
14307;DHT22;7237;49.500;11.400;2022-11-20T06:05:49;0.90;99.90
14307;DHT22;7237;49.500;11.400;2022-11-20T06:08:16;0.90;99.90
14307;DHT22;7237;49.500;11.400;2022-11-20T06:10:43;0.90;99.90
14307;DHT22;7237;49.500;11.400;2022-11-20T06:13:09;0.90;99.90
14307;DHT22;7237;49.500;11.400;2022-11-20T06:15:36;0.80;99.90
14307;DHT22;7237;49.500;11.400;2022-11-20T06:18:03;0.80;99.90
14307;DHT22;7237;49.500;11.400;2022-11-20T06:20:30;0.90;99.90
14307;DHT22;7237;49.500;11.400;2022-11-20T06:22:58;0.90;99.90
14307;DHT22;7237;49.500;11.400;2022-11-20T06:25:24;0.90;99.90
14307;DHT22;7237;49.500;11.400;2022-11-20T06:27:52;0.90;99.90
14307;DHT22;7237;49.500;11.400;2022-11-20T06:30:18;0.90;99.90
14307;DHT22;7237;49.500;11.400;2022-11-20T06:32:45;0.90;99.90
14307;DHT22;7237;49.500;11.400;2022-11-20T06:35:12;0.90;99.90
14307;DHT22;7237;49.500;11.400;2022-11-20T06:37:39;0.90;99.90
14307;DHT22;7237;49.500;11.400;2022-11-20T06:40:09;0.80;99.90
14307;DHT22;7237;49.500;11.400;2022-11-20T06:42:36;0.80;99.90
14307;DHT22;7237;49.500;11.400;2022-11-20T06:45:03;0.80;99.90
14307;DHT22;7237;49.500;11.400;2022-11-20T06:47:30;0.80;99.90
14307;DHT22;7237;49.500;11.400;2022-11-20T06:49:56;0.80;99.90
14307;DHT22;7237;49.500;11.400;2022-11-20T06:52:23;0.90;99.90
14307;DHT22;7237;49.500;11.400;2022-11-20T06:54:50;1.00;99.90
14307;DHT22;7237;49.500;11.400;2022-11-20T06:57:18;1.00;99.90
14307;DHT22;7237;49.500;11.400;2022-11-20T06:59:45;1.00;99.90
14307;DHT22;7237;49.500;11.400;2022-11-20T07:02:12;1.00;99.90
14307;DHT22;7237;49.500;11.400;2022-11-20T07:04:39;1.10;99.90
14307;DHT22;7237;49.500;11.400;2022-11-20T07:07:05;1.10;99.90
14307;DHT22;7237;49.500;11.400;2022-11-20T07:09:32;1.00;99.90
14307;DHT22;7237;49.500;11.400;2022-11-20T07:11:59;1.10;99.90
14307;DHT22;7237;49.500;11.400;2022-11-20T07:14:28;0.80;99.90
14307;DHT22;7237;49.500;11.400;2022-11-20T07:16:55;1.10;99.90
14307;DHT22;7237;49.500;11.400;2022-11-20T07:19:21;1.20;99.90
14307;DHT22;7237;49.500;11.400;2022-11-20T07:21:48;1.30;99.90
14307;DHT22;7237;49.500;11.400;2022-11-20T07:24:15;1.40;99.90
14307;DHT22;7237;49.500;11.400;2022-11-20T07:26:41;1.40;99.90
14307;DHT22;7237;49.500;11.400;2022-11-20T07:29:08;1.40;99.90
14307;DHT22;7237;49.500;11.400;2022-11-20T07:31:36;1.40;99.90
14307;DHT22;7237;49.500;11.400;2022-11-20T07:34:03;1.40;99.90
14307;DHT22;7237;49.500;11.400;2022-11-20T07:36:30;1.40;99.90
14307;DHT22;7237;49.500;11.400;2022-11-20T07:38:57;1.40;99.90
14307;DHT22;7237;49.500;11.400;2022-11-20T07:41:24;1.40;99.90
14307;DHT22;7237;49.500;11.400;2022-11-20T07:43:51;1.90;99.90
14307;DHT22;7237;49.500;11.400;2022-11-20T07:46:18;1.50;99.90
14307;DHT22;7237;49.500;11.400;2022-11-20T07:48:46;1.50;99.90
14307;DHT22;7237;49.500;11.400;2022-11-20T07:51:12;1.50;99.90
14307;DHT22;7237;49.500;11.400;2022-11-20T07:53:39;1.50;99.90
14307;DHT22;7237;49.500;11.400;2022-11-20T07:56:07;1.50;99.90
14307;DHT22;7237;49.500;11.400;2022-11-20T07:58:33;1.50;99.90
14307;DHT22;7237;49.500;11.400;2022-11-20T08:01:03;1.50;99.90
14307;DHT22;7237;49.500;11.400;2022-11-20T08:03:30;1.60;99.90
14307;DHT22;7237;49.500;11.400;2022-11-20T08:06:00;2.40;99.90
14307;DHT22;7237;49.500;11.400;2022-11-20T08:08:27;1.60;99.90
14307;DHT22;7237;49.500;11.400;2022-11-20T08:10:54;1.60;99.90
14307;DHT22;7237;49.500;11.400;2022-11-20T08:13:41;1.70;99.90
14307;DHT22;7237;49.500;11.400;2022-11-20T08:16:25;1.80;99.90
14307;DHT22;7237;49.500;11.400;2022-11-20T08:18:52;1.80;99.90
14307;DHT22;7237;49.500;11.400;2022-11-20T08:21:20;1.90;99.90
14307;DHT22;7237;49.500;11.400;2022-11-20T08:23:47;1.90;99.90
14307;DHT22;7237;49.500;11.400;2022-11-20T08:26:13;1.90;99.90
14307;DHT22;7237;49.500;11.400;2022-11-20T08:28:40;1.90;99.90
14307;DHT22;7237;49.500;11.400;2022-11-20T08:31:07;2.00;99.90
14307;DHT22;7237;49.500;11.400;2022-11-20T08:33:35;2.00;99.90
14307;DHT22;7237;49.500;11.400;2022-11-20T08:36:03;2.10;99.90
14307;DHT22;7237;49.500;11.400;2022-11-20T08:38:31;2.00;99.90
14307;DHT22;7237;49.500;11.400;2022-11-20T08:40:58;1.90;99.90
14307;DHT22;7237;49.500;11.400;2022-11-20T08:43:43;1.90;99.90
14307;DHT22;7237;49.500;11.400;2022-11-20T08:46:10;1.90;99.90
14307;DHT22;7237;49.500;11.400;2022-11-20T08:48:37;1.90;99.90
14307;DHT22;7237;49.500;11.400;2022-11-20T08:51:04;1.80;99.90
14307;DHT22;7237;49.500;11.400;2022-11-20T08:53:32;1.90;99.90
14307;DHT22;7237;49.500;11.400;2022-11-20T08:55:59;2.00;99.90
14307;DHT22;7237;49.500;11.400;2022-11-20T08:58:26;2.10;99.90
14307;DHT22;7237;49.500;11.400;2022-11-20T09:00:53;2.70;99.90
14307;DHT22;7237;49.500;11.400;2022-11-20T09:03:20;2.10;99.90
14307;DHT22;7237;49.500;11.400;2022-11-20T09:05:47;2.10;99.90
14307;DHT22;7237;49.500;11.400;2022-11-20T09:08:13;2.10;99.90
14307;DHT22;7237;49.500;11.400;2022-11-20T09:10:42;2.20;99.90
14307;DHT22;7237;49.500;11.400;2022-11-20T09:13:08;2.10;99.90
14307;DHT22;7237;49.500;11.400;2022-11-20T09:15:35;2.10;99.90
14307;DHT22;7237;49.500;11.400;2022-11-20T09:18:03;2.20;99.90
14307;DHT22;7237;49.500;11.400;2022-11-20T09:20:30;2.20;99.90
14307;DHT22;7237;49.500;11.400;2022-11-20T09:22:57;2.20;99.90
14307;DHT22;7237;49.500;11.400;2022-11-20T09:25:25;2.20;99.90
14307;DHT22;7237;49.500;11.400;2022-11-20T09:27:56;2.10;99.90
14307;DHT22;7237;49.500;11.400;2022-11-20T09:30:23;2.00;99.90
14307;DHT22;7237;49.500;11.400;2022-11-20T09:32:50;2.00;99.90
14307;DHT22;7237;49.500;11.400;2022-11-20T09:35:17;2.10;99.90
14307;DHT22;7237;49.500;11.400;2022-11-20T09:37:44;2.10;99.90
14307;DHT22;7237;49.500;11.400;2022-11-20T09:40:19;2.20;99.90
14307;DHT22;7237;49.500;11.400;2022-11-20T09:42:49;2.00;99.90
14307;DHT22;7237;49.500;11.400;2022-11-20T09:45:32;2.00;99.90
14307;DHT22;7237;49.500;11.400;2022-11-20T09:48:26;2.00;99.90
14307;DHT22;7237;49.500;11.400;2022-11-20T09:50:59;2.50;99.90
14307;DHT22;7237;49.500;11.400;2022-11-20T09:53:36;2.20;99.90
14307;DHT22;7237;49.500;11.400;2022-11-20T09:56:04;2.20;99.90
14307;DHT22;7237;49.500;11.400;2022-11-20T09:58:34;2.30;99.90
14307;DHT22;7237;49.500;11.400;2022-11-20T10:01:10;2.30;99.90
14307;DHT22;7237;49.500;11.400;2022-11-20T10:03:43;2.20;99.90
14307;DHT22;7237;49.500;11.400;2022-11-20T10:06:15;2.20;99.90
14307;DHT22;7237;49.500;11.400;2022-11-20T10:08:47;2.20;99.90
14307;DHT22;7237;49.500;11.400;2022-11-20T10:11:23;2.20;99.90
14307;DHT22;7237;49.500;11.400;2022-11-20T10:14:02;2.30;99.90
14307;DHT22;7237;49.500;11.400;2022-11-20T10:16:39;2.30;99.90
14307;DHT22;7237;49.500;11.400;2022-11-20T10:19:20;2.40;99.90
14307;DHT22;7237;49.500;11.400;2022-11-20T10:21:59;2.50;99.90
14307;DHT22;7237;49.500;11.400;2022-11-20T10:24:44;2.60;99.90
14307;DHT22;7237;49.500;11.400;2022-11-20T10:27:37;2.70;99.90
14307;DHT22;7237;49.500;11.400;2022-11-20T10:30:09;2.60;99.90
14307;DHT22;7237;49.500;11.400;2022-11-20T10:32:39;2.50;99.90
14307;DHT22;7237;49.500;11.400;2022-11-20T10:35:16;2.60;99.90
14307;DHT22;7237;49.500;11.400;2022-11-20T10:37:47;2.60;99.90
14307;DHT22;7237;49.500;11.400;2022-11-20T10:40:22;2.60;99.90
14307;DHT22;7237;49.500;11.400;2022-11-20T10:42:53;2.70;99.90
14307;DHT22;7237;49.500;11.400;2022-11-20T10:45:33;2.80;99.90
14307;DHT22;7237;49.500;11.400;2022-11-20T10:48:15;2.90;99.90
14307;DHT22;7237;49.500;11.400;2022-11-20T10:50:52;3.00;99.90
14307;DHT22;7237;49.500;11.400;2022-11-20T10:53:31;3.00;99.90
14307;DHT22;7237;49.500;11.400;2022-11-20T10:56:07;3.00;99.90
14307;DHT22;7237;49.500;11.400;2022-11-20T10:58:42;2.70;99.90
14307;DHT22;7237;49.500;11.400;2022-11-20T11:01:14;2.70;99.90
14307;DHT22;7237;49.500;11.400;2022-11-20T11:03:43;2.10;99.90
14307;DHT22;7237;49.500;11.400;2022-11-20T11:06:14;2.50;99.90
14307;DHT22;7237;49.500;11.400;2022-11-20T11:08:44;2.50;99.90
14307;DHT22;7237;49.500;11.400;2022-11-20T11:11:20;2.50;99.90
14307;DHT22;7237;49.500;11.400;2022-11-20T11:13:47;2.60;99.90
14307;DHT22;7237;49.500;11.400;2022-11-20T11:16:21;2.60;99.90
14307;DHT22;7237;49.500;11.400;2022-11-20T11:18:50;2.70;99.90
14307;DHT22;7237;49.500;11.400;2022-11-20T11:21:22;2.90;99.90
14307;DHT22;7237;49.500;11.400;2022-11-20T11:23:58;3.10;99.90
14307;DHT22;7237;49.500;11.400;2022-11-20T11:26:25;3.20;99.90
14307;DHT22;7237;49.500;11.400;2022-11-20T11:28:57;3.20;99.90
14307;DHT22;7237;49.500;11.400;2022-11-20T11:31:25;3.30;99.90
14307;DHT22;7237;49.500;11.400;2022-11-20T11:34:04;3.30;99.90
14307;DHT22;7237;49.500;11.400;2022-11-20T11:36:32;3.30;99.90
14307;DHT22;7237;49.500;11.400;2022-11-20T11:39:02;3.20;99.90
14307;DHT22;7237;49.500;11.400;2022-11-20T11:41:32;3.90;99.90
14307;DHT22;7237;49.500;11.400;2022-11-20T11:44:03;3.40;99.90
14307;DHT22;7237;49.500;11.400;2022-11-20T11:46:57;3.20;99.90
14307;DHT22;7237;49.500;11.400;2022-11-20T11:49:25;3.00;99.90
14307;DHT22;7237;49.500;11.400;2022-11-20T11:52:01;2.80;99.90
14307;DHT22;7237;49.500;11.400;2022-11-20T11:54:32;2.70;99.90
14307;DHT22;7237;49.500;11.400;2022-11-20T11:57:03;2.80;99.90
14307;DHT22;7237;49.500;11.400;2022-11-20T11:59:41;3.80;99.90
14307;DHT22;7237;49.500;11.400;2022-11-20T12:02:19;3.30;99.90
14307;DHT22;7237;49.500;11.400;2022-11-20T12:04:54;3.50;99.90
14307;DHT22;7237;49.500;11.400;2022-11-20T12:07:34;4.00;99.90
14307;DHT22;7237;49.500;11.400;2022-11-20T12:10:03;4.10;99.90
14307;DHT22;7237;49.500;11.400;2022-11-20T12:12:34;4.30;99.90
14307;DHT22;7237;49.500;11.400;2022-11-20T12:15:06;4.30;99.90
14307;DHT22;7237;49.500;11.400;2022-11-20T12:17:34;4.10;99.90
14307;DHT22;7237;49.500;11.400;2022-11-20T12:22:35;3.80;99.90
14307;DHT22;7237;49.500;11.400;2022-11-20T12:25:08;4.70;99.90
14307;DHT22;7237;49.500;11.400;2022-11-20T12:28:14;4.80;99.90
14307;DHT22;7237;49.500;11.400;2022-11-20T12:30:54;4.60;99.90
14307;DHT22;7237;49.500;11.400;2022-11-20T12:36:37;4.40;99.90
14307;DHT22;7237;49.500;11.400;2022-11-20T12:39:34;4.50;99.90
14307;DHT22;7237;49.500;11.400;2022-11-20T12:42:23;4.20;99.90
14307;DHT22;7237;49.500;11.400;2022-11-20T12:45:29;4.10;99.90
14307;DHT22;7237;49.500;11.400;2022-11-20T12:48:19;4.10;99.90
14307;DHT22;7237;49.500;11.400;2022-11-20T12:51:15;4.10;99.90
14307;DHT22;7237;49.500;11.400;2022-11-20T12:53:56;3.80;99.90
14307;DHT22;7237;49.500;11.400;2022-11-20T12:56:34;4.00;99.90
14307;DHT22;7237;49.500;11.400;2022-11-20T12:59:21;4.10;99.90
14307;DHT22;7237;49.500;11.400;2022-11-20T13:01:51;3.90;99.90
14307;DHT22;7237;49.500;11.400;2022-11-20T13:07:15;3.60;99.90
14307;DHT22;7237;49.500;11.400;2022-11-20T13:09:46;3.80;99.90
14307;DHT22;7237;49.500;11.400;2022-11-20T13:12:16;3.70;99.90
14307;DHT22;7237;49.500;11.400;2022-11-20T13:14:50;3.70;99.90
14307;DHT22;7237;49.500;11.400;2022-11-20T13:17:23;3.80;99.90
14307;DHT22;7237;49.500;11.400;2022-11-20T13:19:54;3.70;99.90
14307;DHT22;7237;49.500;11.400;2022-11-20T13:22:25;3.60;99.90
14307;DHT22;7237;49.500;11.400;2022-11-20T13:24:53;3.60;99.90
14307;DHT22;7237;49.500;11.400;2022-11-20T13:27:21;3.70;99.90
14307;DHT22;7237;49.500;11.400;2022-11-20T13:30:12;3.50;99.90
14307;DHT22;7237;49.500;11.400;2022-11-20T13:32:51;3.40;99.90
14307;DHT22;7237;49.500;11.400;2022-11-20T13:35:27;3.40;99.90
14307;DHT22;7237;49.500;11.400;2022-11-20T13:38:04;3.30;99.90
14307;DHT22;7237;49.500;11.400;2022-11-20T13:40:33;3.50;99.90
14307;DHT22;7237;49.500;11.400;2022-11-20T13:43:20;3.20;99.90
14307;DHT22;7237;49.500;11.400;2022-11-20T13:45:56;3.40;99.90
14307;DHT22;7237;49.500;11.400;2022-11-20T13:48:25;3.40;99.90
14307;DHT22;7237;49.500;11.400;2022-11-20T13:51:03;3.20;99.90
14307;DHT22;7237;49.500;11.400;2022-11-20T13:53:42;3.10;99.90
14307;DHT22;7237;49.500;11.400;2022-11-20T13:56:19;3.40;99.90
14307;DHT22;7237;49.500;11.400;2022-11-20T13:58:56;3.50;99.90
14307;DHT22;7237;49.500;11.400;2022-11-20T14:01:28;3.40;99.90
14307;DHT22;7237;49.500;11.400;2022-11-20T14:03:57;3.50;99.90
14307;DHT22;7237;49.500;11.400;2022-11-20T14:06:27;3.40;99.90
14307;DHT22;7237;49.500;11.400;2022-11-20T14:08:55;3.30;99.90
14307;DHT22;7237;49.500;11.400;2022-11-20T14:11:25;3.40;99.90
14307;DHT22;7237;49.500;11.400;2022-11-20T14:14:03;3.30;99.90
14307;DHT22;7237;49.500;11.400;2022-11-20T14:16:34;3.40;99.90
14307;DHT22;7237;49.500;11.400;2022-11-20T14:19:28;3.50;99.90
14307;DHT22;7237;49.500;11.400;2022-11-20T14:22:14;3.40;99.90
14307;DHT22;7237;49.500;11.400;2022-11-20T14:24:42;3.20;99.90
14307;DHT22;7237;49.500;11.400;2022-11-20T14:27:14;3.80;99.90
14307;DHT22;7237;49.500;11.400;2022-11-20T14:29:43;3.80;99.90
14307;DHT22;7237;49.500;11.400;2022-11-20T14:32:10;3.60;99.90
14307;DHT22;7237;49.500;11.400;2022-11-20T14:34:40;3.50;99.90
14307;DHT22;7237;49.500;11.400;2022-11-20T14:37:12;3.30;99.90
14307;DHT22;7237;49.500;11.400;2022-11-20T14:39:42;3.20;99.90
14307;DHT22;7237;49.500;11.400;2022-11-20T14:42:18;3.20;99.90
14307;DHT22;7237;49.500;11.400;2022-11-20T14:44:45;3.30;99.90
14307;DHT22;7237;49.500;11.400;2022-11-20T14:47:18;3.10;99.90
14307;DHT22;7237;49.500;11.400;2022-11-20T14:49:45;3.20;99.90
14307;DHT22;7237;49.500;11.400;2022-11-20T14:52:15;3.00;99.90
14307;DHT22;7237;49.500;11.400;2022-11-20T14:54:46;3.20;99.90
14307;DHT22;7237;49.500;11.400;2022-11-20T14:57:26;3.30;99.90
14307;DHT22;7237;49.500;11.400;2022-11-20T15:00:08;3.10;99.90
14307;DHT22;7237;49.500;11.400;2022-11-20T15:02:45;3.10;99.90
14307;DHT22;7237;49.500;11.400;2022-11-20T15:05:13;3.60;99.90
14307;DHT22;7237;49.500;11.400;2022-11-20T15:07:42;3.30;99.90
14307;DHT22;7237;49.500;11.400;2022-11-20T15:10:13;3.30;99.90
14307;DHT22;7237;49.500;11.400;2022-11-20T15:12:46;3.30;99.90
14307;DHT22;7237;49.500;11.400;2022-11-20T15:15:17;3.40;99.90
14307;DHT22;7237;49.500;11.400;2022-11-20T15:17:47;3.00;99.90
14307;DHT22;7237;49.500;11.400;2022-11-20T15:20:15;3.20;99.90
14307;DHT22;7237;49.500;11.400;2022-11-20T15:22:43;3.50;99.90
14307;DHT22;7237;49.500;11.400;2022-11-20T15:25:13;3.50;99.90
14307;DHT22;7237;49.500;11.400;2022-11-20T15:27:42;3.10;99.90
14307;DHT22;7237;49.500;11.400;2022-11-20T15:30:13;3.20;99.90
14307;DHT22;7237;49.500;11.400;2022-11-20T15:32:41;3.10;99.90
14307;DHT22;7237;49.500;11.400;2022-11-20T15:35:08;3.20;99.90
14307;DHT22;7237;49.500;11.400;2022-11-20T15:37:35;3.10;99.90
14307;DHT22;7237;49.500;11.400;2022-11-20T15:40:02;3.20;99.90
14307;DHT22;7237;49.500;11.400;2022-11-20T15:42:29;3.00;99.90
14307;DHT22;7237;49.500;11.400;2022-11-20T15:44:57;3.00;99.90
14307;DHT22;7237;49.500;11.400;2022-11-20T15:47:27;3.60;99.90
14307;DHT22;7237;49.500;11.400;2022-11-20T15:49:54;3.10;99.90
14307;DHT22;7237;49.500;11.400;2022-11-20T15:52:21;3.20;99.90
14307;DHT22;7237;49.500;11.400;2022-11-20T15:54:48;3.10;99.90
14307;DHT22;7237;49.500;11.400;2022-11-20T15:57:15;3.20;99.90
14307;DHT22;7237;49.500;11.400;2022-11-20T15:59:41;3.00;99.90
14307;DHT22;7237;49.500;11.400;2022-11-20T16:02:11;2.90;99.90
14307;DHT22;7237;49.500;11.400;2022-11-20T16:04:38;3.00;99.90
14307;DHT22;7237;49.500;11.400;2022-11-20T16:07:05;2.90;99.90
14307;DHT22;7237;49.500;11.400;2022-11-20T16:09:31;3.10;99.90
14307;DHT22;7237;49.500;11.400;2022-11-20T16:11:59;3.10;99.90